sensor_id;sensor_type;location;lat;lon;timestamp;P1;durP1;ratioP1;P2;durP2;ratioP2
27802;SDS011;15182;48.174;11.562;2023-07-09T00:01:43;6.50;;;5.72;;
27802;SDS011;15182;48.174;11.562;2023-07-09T00:04:11;6.28;;;5.78;;
27802;SDS011;15182;48.174;11.562;2023-07-09T00:06:39;6.53;;;6.03;;
27802;SDS011;15182;48.174;11.562;2023-07-09T00:09:11;7.30;;;5.97;;
27802;SDS011;15182;48.174;11.562;2023-07-09T00:11:41;5.47;;;5.07;;
27802;SDS011;15182;48.174;11.562;2023-07-09T00:14:10;5.78;;;5.38;;
27802;SDS011;15182;48.174;11.562;2023-07-09T00:16:43;6.38;;;5.63;;
27802;SDS011;15182;48.174;11.562;2023-07-09T00:19:14;7.35;;;6.00;;
27802;SDS011;15182;48.174;11.562;2023-07-09T00:21:47;5.93;;;5.53;;
27802;SDS011;15182;48.174;11.562;2023-07-09T00:24:18;6.68;;;6.05;;
27802;SDS011;15182;48.174;11.562;2023-07-09T00:26:46;5.75;;;5.35;;
27802;SDS011;15182;48.174;11.562;2023-07-09T00:29:17;6.47;;;5.80;;
27802;SDS011;15182;48.174;11.562;2023-07-09T00:31:45;6.85;;;6.10;;
27802;SDS011;15182;48.174;11.562;2023-07-09T00:34:13;8.32;;;6.10;;
27802;SDS011;15182;48.174;11.562;2023-07-09T00:36:47;6.57;;;6.13;;
27802;SDS011;15182;48.174;11.562;2023-07-09T00:39:16;7.45;;;5.93;;
27802;SDS011;15182;48.174;11.562;2023-07-09T00:41:47;5.82;;;5.47;;
27802;SDS011;15182;48.174;11.562;2023-07-09T00:44:24;6.85;;;5.80;;
27802;SDS011;15182;48.174;11.562;2023-07-09T00:47:17;6.43;;;5.72;;
27802;SDS011;15182;48.174;11.562;2023-07-09T00:49:59;6.82;;;5.97;;
27802;SDS011;15182;48.174;11.562;2023-07-09T00:52:37;7.32;;;5.68;;
27802;SDS011;15182;48.174;11.562;2023-07-09T00:55:11;6.50;;;5.90;;
27802;SDS011;15182;48.174;11.562;2023-07-09T00:57:42;6.28;;;5.68;;
27802;SDS011;15182;48.174;11.562;2023-07-09T01:00:24;6.53;;;5.63;;
27802;SDS011;15182;48.174;11.562;2023-07-09T01:03:02;5.57;;;5.05;;
27802;SDS011;15182;48.174;11.562;2023-07-09T01:05:32;8.20;;;6.13;;
27802;SDS011;15182;48.174;11.562;2023-07-09T01:08:00;7.25;;;5.80;;
27802;SDS011;15182;48.174;11.562;2023-07-09T01:10:28;6.00;;;5.43;;
27802;SDS011;15182;48.174;11.562;2023-07-09T01:12:58;6.03;;;5.65;;
27802;SDS011;15182;48.174;11.562;2023-07-09T01:15:27;6.30;;;5.80;;
27802;SDS011;15182;48.174;11.562;2023-07-09T01:17:56;6.03;;;5.53;;
27802;SDS011;15182;48.174;11.562;2023-07-09T01:20:26;6.10;;;5.38;;
27802;SDS011;15182;48.174;11.562;2023-07-09T01:22:55;6.78;;;5.60;;
27802;SDS011;15182;48.174;11.562;2023-07-09T01:25:27;7.25;;;5.53;;
27802;SDS011;15182;48.174;11.562;2023-07-09T01:27:55;5.63;;;5.22;;
27802;SDS011;15182;48.174;11.562;2023-07-09T01:30:25;6.25;;;5.65;;
27802;SDS011;15182;48.174;11.562;2023-07-09T01:32:57;5.47;;;4.90;;
27802;SDS011;15182;48.174;11.562;2023-07-09T01:35:27;5.53;;;5.13;;
27802;SDS011;15182;48.174;11.562;2023-07-09T01:37:59;6.00;;;5.50;;
27802;SDS011;15182;48.174;11.562;2023-07-09T01:40:27;5.60;;;5.00;;
27802;SDS011;15182;48.174;11.562;2023-07-09T01:42:56;5.90;;;5.32;;
27802;SDS011;15182;48.174;11.562;2023-07-09T01:45:26;5.35;;;4.70;;
27802;SDS011;15182;48.174;11.562;2023-07-09T01:47:55;5.78;;;5.20;;
27802;SDS011;15182;48.174;11.562;2023-07-09T01:50:23;5.55;;;4.97;;
27802;SDS011;15182;48.174;11.562;2023-07-09T01:52:52;6.28;;;5.07;;
27802;SDS011;15182;48.174;11.562;2023-07-09T01:55:23;5.55;;;5.15;;
27802;SDS011;15182;48.174;11.562;2023-07-09T01:57:51;4.80;;;4.50;;
27802;SDS011;15182;48.174;11.562;2023-07-09T02:00:20;5.38;;;4.97;;
27802;SDS011;15182;48.174;11.562;2023-07-09T02:02:48;4.95;;;4.65;;
27802;SDS011;15182;48.174;11.562;2023-07-09T02:05:17;4.97;;;4.65;;
27802;SDS011;15182;48.174;11.562;2023-07-09T02:07:46;5.53;;;5.00;;
27802;SDS011;15182;48.174;11.562;2023-07-09T02:10:15;4.97;;;4.68;;
27802;SDS011;15182;48.174;11.562;2023-07-09T02:12:46;5.22;;;4.70;;
27802;SDS011;15182;48.174;11.562;2023-07-09T02:15:15;5.25;;;4.85;;
27802;SDS011;15182;48.174;11.562;2023-07-09T02:17:44;4.93;;;4.53;;
27802;SDS011;15182;48.174;11.562;2023-07-09T02:20:12;5.28;;;4.78;;
27802;SDS011;15182;48.174;11.562;2023-07-09T02:22:41;4.78;;;4.57;;
27802;SDS011;15182;48.174;11.562;2023-07-09T02:25:09;5.10;;;4.45;;
27802;SDS011;15182;48.174;11.562;2023-07-09T02:27:38;4.63;;;4.32;;
27802;SDS011;15182;48.174;11.562;2023-07-09T02:30:08;5.40;;;4.57;;
27802;SDS011;15182;48.174;11.562;2023-07-09T02:32:37;4.35;;;4.10;;
27802;SDS011;15182;48.174;11.562;2023-07-09T02:35:05;5.30;;;4.43;;
27802;SDS011;15182;48.174;11.562;2023-07-09T02:37:34;5.13;;;4.35;;
27802;SDS011;15182;48.174;11.562;2023-07-09T02:40:02;4.78;;;4.47;;
27802;SDS011;15182;48.174;11.562;2023-07-09T02:42:32;4.20;;;4.00;;
27802;SDS011;15182;48.174;11.562;2023-07-09T02:45:00;4.55;;;4.28;;
27802;SDS011;15182;48.174;11.562;2023-07-09T02:47:32;4.93;;;4.55;;
27802;SDS011;15182;48.174;11.562;2023-07-09T02:50:00;4.85;;;4.30;;
27802;SDS011;15182;48.174;11.562;2023-07-09T02:52:29;5.13;;;4.72;;
27802;SDS011;15182;48.174;11.562;2023-07-09T02:54:57;5.38;;;4.72;;
27802;SDS011;15182;48.174;11.562;2023-07-09T02:57:25;4.43;;;4.20;;
27802;SDS011;15182;48.174;11.562;2023-07-09T02:59:52;4.60;;;4.25;;
27802;SDS011;15182;48.174;11.562;2023-07-09T03:02:20;4.68;;;4.03;;
27802;SDS011;15182;48.174;11.562;2023-07-09T03:04:49;4.47;;;4.18;;
27802;SDS011;15182;48.174;11.562;2023-07-09T03:07:17;4.15;;;3.95;;
27802;SDS011;15182;48.174;11.562;2023-07-09T03:09:45;4.43;;;3.75;;
27802;SDS011;15182;48.174;11.562;2023-07-09T03:12:13;5.82;;;4.95;;
27802;SDS011;15182;48.174;11.562;2023-07-09T03:14:41;4.10;;;3.90;;
27802;SDS011;15182;48.174;11.562;2023-07-09T03:17:09;4.40;;;4.07;;
27802;SDS011;15182;48.174;11.562;2023-07-09T03:19:36;4.45;;;4.25;;
27802;SDS011;15182;48.174;11.562;2023-07-09T03:22:06;4.82;;;4.35;;
27802;SDS011;15182;48.174;11.562;2023-07-09T03:24:33;6.00;;;4.35;;
27802;SDS011;15182;48.174;11.562;2023-07-09T03:27:01;4.72;;;4.32;;
27802;SDS011;15182;48.174;11.562;2023-07-09T03:29:30;4.00;;;3.80;;
27802;SDS011;15182;48.174;11.562;2023-07-09T03:31:58;4.50;;;4.13;;
27802;SDS011;15182;48.174;11.562;2023-07-09T03:34:25;4.50;;;4.22;;
27802;SDS011;15182;48.174;11.562;2023-07-09T03:36:53;4.63;;;4.28;;
27802;SDS011;15182;48.174;11.562;2023-07-09T03:39:22;4.47;;;4.28;;
27802;SDS011;15182;48.174;11.562;2023-07-09T03:41:50;4.47;;;4.25;;
27802;SDS011;15182;48.174;11.562;2023-07-09T03:44:18;5.38;;;4.25;;
27802;SDS011;15182;48.174;11.562;2023-07-09T03:46:46;4.55;;;4.15;;
27802;SDS011;15182;48.174;11.562;2023-07-09T03:49:14;3.83;;;3.72;;
27802;SDS011;15182;48.174;11.562;2023-07-09T03:51:41;4.43;;;4.03;;
27802;SDS011;15182;48.174;11.562;2023-07-09T03:54:09;4.60;;;4.13;;
27802;SDS011;15182;48.174;11.562;2023-07-09T03:56:38;4.20;;;3.90;;
27802;SDS011;15182;48.174;11.562;2023-07-09T03:59:06;4.65;;;4.30;;
27802;SDS011;15182;48.174;11.562;2023-07-09T04:01:34;5.05;;;4.70;;
27802;SDS011;15182;48.174;11.562;2023-07-09T04:04:01;4.88;;;4.60;;
27802;SDS011;15182;48.174;11.562;2023-07-09T04:06:29;4.55;;;4.20;;
27802;SDS011;15182;48.174;11.562;2023-07-09T04:08:57;4.22;;;4.03;;
27802;SDS011;15182;48.174;11.562;2023-07-09T04:11:25;5.07;;;4.57;;
27802;SDS011;15182;48.174;11.562;2023-07-09T04:13:54;4.40;;;4.10;;
27802;SDS011;15182;48.174;11.562;2023-07-09T04:16:22;4.80;;;4.50;;
27802;SDS011;15182;48.174;11.562;2023-07-09T04:18:50;4.47;;;4.25;;
27802;SDS011;15182;48.174;11.562;2023-07-09T04:21:17;4.30;;;4.00;;
27802;SDS011;15182;48.174;11.562;2023-07-09T04:23:45;4.60;;;4.30;;
27802;SDS011;15182;48.174;11.562;2023-07-09T04:26:13;4.70;;;4.40;;
27802;SDS011;15182;48.174;11.562;2023-07-09T04:28:41;4.80;;;4.22;;
27802;SDS011;15182;48.174;11.562;2023-07-09T04:31:11;4.68;;;4.28;;
27802;SDS011;15182;48.174;11.562;2023-07-09T04:33:38;4.53;;;4.22;;
27802;SDS011;15182;48.174;11.562;2023-07-09T04:36:06;4.78;;;4.32;;
27802;SDS011;15182;48.174;11.562;2023-07-09T04:38:34;4.07;;;3.90;;
27802;SDS011;15182;48.174;11.562;2023-07-09T04:41:02;4.50;;;4.20;;
27802;SDS011;15182;48.174;11.562;2023-07-09T04:43:30;4.38;;;4.10;;
27802;SDS011;15182;48.174;11.562;2023-07-09T04:45:58;4.38;;;4.03;;
27802;SDS011;15182;48.174;11.562;2023-07-09T04:48:27;4.32;;;4.10;;
27802;SDS011;15182;48.174;11.562;2023-07-09T04:50:55;4.05;;;3.80;;
27802;SDS011;15182;48.174;11.562;2023-07-09T04:53:22;5.47;;;4.32;;
27802;SDS011;15182;48.174;11.562;2023-07-09T04:55:50;4.55;;;4.25;;
27802;SDS011;15182;48.174;11.562;2023-07-09T04:58:18;3.95;;;3.83;;
27802;SDS011;15182;48.174;11.562;2023-07-09T05:00:46;3.92;;;3.72;;
27802;SDS011;15182;48.174;11.562;2023-07-09T05:03:17;4.50;;;4.20;;
27802;SDS011;15182;48.174;11.562;2023-07-09T05:05:47;4.57;;;4.18;;
27802;SDS011;15182;48.174;11.562;2023-07-09T05:08:15;4.75;;;4.45;;
27802;SDS011;15182;48.174;11.562;2023-07-09T05:10:44;4.13;;;4.03;;
27802;SDS011;15182;48.174;11.562;2023-07-09T05:13:13;4.35;;;4.00;;
27802;SDS011;15182;48.174;11.562;2023-07-09T05:15:42;4.38;;;3.88;;
27802;SDS011;15182;48.174;11.562;2023-07-09T05:18:12;4.28;;;3.95;;
27802;SDS011;15182;48.174;11.562;2023-07-09T05:20:41;4.63;;;4.20;;
27802;SDS011;15182;48.174;11.562;2023-07-09T05:23:11;3.90;;;3.70;;
27802;SDS011;15182;48.174;11.562;2023-07-09T05:25:39;4.15;;;3.95;;
27802;SDS011;15182;48.174;11.562;2023-07-09T05:28:07;4.22;;;4.03;;
27802;SDS011;15182;48.174;11.562;2023-07-09T05:30:34;4.35;;;4.05;;
27802;SDS011;15182;48.174;11.562;2023-07-09T05:33:02;4.20;;;3.75;;
27802;SDS011;15182;48.174;11.562;2023-07-09T05:35:30;3.90;;;3.70;;
27802;SDS011;15182;48.174;11.562;2023-07-09T05:37:58;3.83;;;3.70;;
27802;SDS011;15182;48.174;11.562;2023-07-09T05:40:27;4.30;;;3.72;;
27802;SDS011;15182;48.174;11.562;2023-07-09T05:42:54;4.05;;;3.75;;
27802;SDS011;15182;48.174;11.562;2023-07-09T05:45:22;4.28;;;4.07;;
27802;SDS011;15182;48.174;11.562;2023-07-09T05:47:50;4.13;;;3.88;;
27802;SDS011;15182;48.174;11.562;2023-07-09T05:50:18;5.38;;;3.58;;
27802;SDS011;15182;48.174;11.562;2023-07-09T05:52:46;4.18;;;3.90;;
27802;SDS011;15182;48.174;11.562;2023-07-09T05:55:13;6.05;;;4.50;;
27802;SDS011;15182;48.174;11.562;2023-07-09T05:57:43;3.88;;;3.67;;
27802;SDS011;15182;48.174;11.562;2023-07-09T06:00:11;4.45;;;4.22;;
27802;SDS011;15182;48.174;11.562;2023-07-09T06:02:40;4.00;;;3.70;;
27802;SDS011;15182;48.174;11.562;2023-07-09T06:05:07;4.15;;;3.70;;
27802;SDS011;15182;48.174;11.562;2023-07-09T06:07:37;3.95;;;3.63;;
27802;SDS011;15182;48.174;11.562;2023-07-09T06:10:05;3.75;;;3.55;;
27802;SDS011;15182;48.174;11.562;2023-07-09T06:12:35;4.60;;;3.35;;
27802;SDS011;15182;48.174;11.562;2023-07-09T06:15:05;3.90;;;3.70;;
27802;SDS011;15182;48.174;11.562;2023-07-09T06:17:34;3.67;;;3.40;;
27802;SDS011;15182;48.174;11.562;2023-07-09T06:20:02;3.72;;;3.50;;
27802;SDS011;15182;48.174;11.562;2023-07-09T06:22:30;5.65;;;3.78;;
27802;SDS011;15182;48.174;11.562;2023-07-09T06:24:58;4.15;;;3.90;;
27802;SDS011;15182;48.174;11.562;2023-07-09T06:27:26;4.85;;;3.72;;
27802;SDS011;15182;48.174;11.562;2023-07-09T06:29:54;4.28;;;3.70;;
27802;SDS011;15182;48.174;11.562;2023-07-09T06:32:23;3.70;;;3.50;;
27802;SDS011;15182;48.174;11.562;2023-07-09T06:34:51;3.47;;;3.28;;
27802;SDS011;15182;48.174;11.562;2023-07-09T06:37:19;3.80;;;3.60;;
27802;SDS011;15182;48.174;11.562;2023-07-09T06:39:47;4.35;;;3.97;;
27802;SDS011;15182;48.174;11.562;2023-07-09T06:42:15;4.22;;;3.83;;
27802;SDS011;15182;48.174;11.562;2023-07-09T06:45:09;3.92;;;3.83;;
27802;SDS011;15182;48.174;11.562;2023-07-09T06:47:38;3.80;;;3.60;;
27802;SDS011;15182;48.174;11.562;2023-07-09T06:50:06;3.67;;;3.45;;
27802;SDS011;15182;48.174;11.562;2023-07-09T06:52:34;3.92;;;3.72;;
27802;SDS011;15182;48.174;11.562;2023-07-09T06:55:02;3.50;;;3.40;;
27802;SDS011;15182;48.174;11.562;2023-07-09T06:57:31;3.38;;;3.28;;
27802;SDS011;15182;48.174;11.562;2023-07-09T06:59:59;5.05;;;3.70;;
27802;SDS011;15182;48.174;11.562;2023-07-09T07:02:27;3.97;;;3.70;;
27802;SDS011;15182;48.174;11.562;2023-07-09T07:04:56;4.72;;;3.42;;
27802;SDS011;15182;48.174;11.562;2023-07-09T07:07:23;3.50;;;3.30;;
27802;SDS011;15182;48.174;11.562;2023-07-09T07:09:51;4.03;;;3.60;;
27802;SDS011;15182;48.174;11.562;2023-07-09T07:12:26;3.40;;;3.20;;
27802;SDS011;15182;48.174;11.562;2023-07-09T07:14:55;3.35;;;3.15;;
27802;SDS011;15182;48.174;11.562;2023-07-09T07:17:23;6.38;;;3.20;;
27802;SDS011;15182;48.174;11.562;2023-07-09T07:19:51;3.83;;;3.50;;
27802;SDS011;15182;48.174;11.562;2023-07-09T07:22:20;3.85;;;3.67;;
27802;SDS011;15182;48.174;11.562;2023-07-09T07:24:48;3.72;;;3.45;;
27802;SDS011;15182;48.174;11.562;2023-07-09T07:27:15;7.18;;;3.35;;
27802;SDS011;15182;48.174;11.562;2023-07-09T07:29:43;3.30;;;3.20;;
27802;SDS011;15182;48.174;11.562;2023-07-09T07:32:12;3.40;;;3.30;;
27802;SDS011;15182;48.174;11.562;2023-07-09T07:34:40;5.72;;;3.17;;
27802;SDS011;15182;48.174;11.562;2023-07-09T07:37:07;3.45;;;3.25;;
27802;SDS011;15182;48.174;11.562;2023-07-09T07:39:37;3.70;;;3.40;;
27802;SDS011;15182;48.174;11.562;2023-07-09T07:42:05;3.38;;;3.10;;
27802;SDS011;15182;48.174;11.562;2023-07-09T07:44:33;4.18;;;3.78;;
27802;SDS011;15182;48.174;11.562;2023-07-09T07:47:02;3.83;;;3.63;;
27802;SDS011;15182;48.174;11.562;2023-07-09T07:49:30;3.60;;;3.30;;
27802;SDS011;15182;48.174;11.562;2023-07-09T07:51:58;3.85;;;3.50;;
27802;SDS011;15182;48.174;11.562;2023-07-09T07:54:29;6.53;;;3.15;;
27802;SDS011;15182;48.174;11.562;2023-07-09T07:56:58;4.03;;;3.72;;
27802;SDS011;15182;48.174;11.562;2023-07-09T07:59:26;4.07;;;3.78;;
27802;SDS011;15182;48.174;11.562;2023-07-09T08:01:54;3.60;;;3.40;;
27802;SDS011;15182;48.174;11.562;2023-07-09T08:04:25;3.55;;;3.35;;
27802;SDS011;15182;48.174;11.562;2023-07-09T08:06:52;3.83;;;3.63;;
27802;SDS011;15182;48.174;11.562;2023-07-09T08:09:20;4.40;;;4.10;;
27802;SDS011;15182;48.174;11.562;2023-07-09T08:11:48;4.10;;;3.67;;
27802;SDS011;15182;48.174;11.562;2023-07-09T08:14:17;3.50;;;3.40;;
27802;SDS011;15182;48.174;11.562;2023-07-09T08:16:45;6.25;;;3.70;;
27802;SDS011;15182;48.174;11.562;2023-07-09T08:19:17;5.40;;;4.07;;
27802;SDS011;15182;48.174;11.562;2023-07-09T08:21:46;3.80;;;3.67;;
27802;SDS011;15182;48.174;11.562;2023-07-09T08:24:14;3.50;;;3.40;;
27802;SDS011;15182;48.174;11.562;2023-07-09T08:26:41;3.92;;;3.63;;
27802;SDS011;15182;48.174;11.562;2023-07-09T08:29:09;3.40;;;3.30;;
27802;SDS011;15182;48.174;11.562;2023-07-09T08:31:38;4.25;;;3.63;;
27802;SDS011;15182;48.174;11.562;2023-07-09T08:34:07;4.70;;;3.58;;
27802;SDS011;15182;48.174;11.562;2023-07-09T08:36:35;3.70;;;3.50;;
27802;SDS011;15182;48.174;11.562;2023-07-09T08:39:03;3.78;;;3.47;;
27802;SDS011;15182;48.174;11.562;2023-07-09T08:41:39;4.28;;;3.88;;
27802;SDS011;15182;48.174;11.562;2023-07-09T08:44:17;4.28;;;3.75;;
27802;SDS011;15182;48.174;11.562;2023-07-09T08:47:07;4.25;;;3.95;;
27802;SDS011;15182;48.174;11.562;2023-07-09T08:49:43;3.70;;;3.50;;
27802;SDS011;15182;48.174;11.562;2023-07-09T08:52:17;4.90;;;4.50;;
27802;SDS011;15182;48.174;11.562;2023-07-09T08:54:53;4.18;;;3.90;;
27802;SDS011;15182;48.174;11.562;2023-07-09T08:57:25;4.40;;;3.53;;
27802;SDS011;15182;48.174;11.562;2023-07-09T09:00:02;4.00;;;3.60;;
27802;SDS011;15182;48.174;11.562;2023-07-09T09:02:43;3.80;;;3.50;;
27802;SDS011;15182;48.174;11.562;2023-07-09T09:05:18;4.18;;;3.97;;
27802;SDS011;15182;48.174;11.562;2023-07-09T09:07:49;3.75;;;3.47;;
27802;SDS011;15182;48.174;11.562;2023-07-09T09:10:29;7.40;;;3.85;;
27802;SDS011;15182;48.174;11.562;2023-07-09T09:13:05;3.83;;;3.53;;
27802;SDS011;15182;48.174;11.562;2023-07-09T09:15:39;3.92;;;3.72;;
27802;SDS011;15182;48.174;11.562;2023-07-09T09:18:20;4.55;;;4.25;;
27802;SDS011;15182;48.174;11.562;2023-07-09T09:20:53;3.63;;;3.40;;
27802;SDS011;15182;48.174;11.562;2023-07-09T09:23:25;4.15;;;3.90;;
27802;SDS011;15182;48.174;11.562;2023-07-09T09:26:05;4.43;;;3.58;;
27802;SDS011;15182;48.174;11.562;2023-07-09T09:28:45;4.65;;;3.33;;
27802;SDS011;15182;48.174;11.562;2023-07-09T09:31:13;5.55;;;3.70;;
27802;SDS011;15182;48.174;11.562;2023-07-09T09:33:45;3.40;;;3.30;;
27802;SDS011;15182;48.174;11.562;2023-07-09T09:36:16;4.38;;;3.67;;
27802;SDS011;15182;48.174;11.562;2023-07-09T09:38:46;3.13;;;2.92;;
27802;SDS011;15182;48.174;11.562;2023-07-09T09:41:16;3.50;;;3.30;;
27802;SDS011;15182;48.174;11.562;2023-07-09T09:43:47;5.65;;;3.30;;
27802;SDS011;15182;48.174;11.562;2023-07-09T09:46:18;4.30;;;3.40;;
27802;SDS011;15182;48.174;11.562;2023-07-09T09:48:50;3.63;;;3.53;;
27802;SDS011;15182;48.174;11.562;2023-07-09T09:51:22;3.85;;;3.67;;
27802;SDS011;15182;48.174;11.562;2023-07-09T09:53:51;3.92;;;3.63;;
27802;SDS011;15182;48.174;11.562;2023-07-09T09:56:25;3.70;;;3.50;;
27802;SDS011;15182;48.174;11.562;2023-07-09T09:58:56;4.20;;;3.88;;
27802;SDS011;15182;48.174;11.562;2023-07-09T10:01:26;3.45;;;3.35;;
27802;SDS011;15182;48.174;11.562;2023-07-09T10:03:58;3.47;;;3.20;;
27802;SDS011;15182;48.174;11.562;2023-07-09T10:06:33;3.67;;;3.38;;
27802;SDS011;15182;48.174;11.562;2023-07-09T10:09:05;3.78;;;3.45;;
27802;SDS011;15182;48.174;11.562;2023-07-09T10:11:46;3.63;;;3.42;;
27802;SDS011;15182;48.174;11.562;2023-07-09T10:14:22;4.22;;;3.22;;
27802;SDS011;15182;48.174;11.562;2023-07-09T10:17:04;3.35;;;3.15;;
27802;SDS011;15182;48.174;11.562;2023-07-09T10:19:47;3.38;;;3.28;;
27802;SDS011;15182;48.174;11.562;2023-07-09T10:22:22;3.33;;;3.22;;
27802;SDS011;15182;48.174;11.562;2023-07-09T10:25:13;3.45;;;3.25;;
27802;SDS011;15182;48.174;11.562;2023-07-09T10:28:04;3.95;;;3.10;;
27802;SDS011;15182;48.174;11.562;2023-07-09T10:31:02;5.28;;;3.30;;
27802;SDS011;15182;48.174;11.562;2023-07-09T10:33:42;5.78;;;3.25;;
27802;SDS011;15182;48.174;11.562;2023-07-09T10:36:27;3.90;;;3.47;;
27802;SDS011;15182;48.174;11.562;2023-07-09T10:39:09;3.67;;;3.25;;
27802;SDS011;15182;48.174;11.562;2023-07-09T10:41:42;3.22;;;2.97;;
27802;SDS011;15182;48.174;11.562;2023-07-09T10:44:14;3.72;;;3.42;;
27802;SDS011;15182;48.174;11.562;2023-07-09T10:46:49;4.10;;;3.80;;
27802;SDS011;15182;48.174;11.562;2023-07-09T10:49:21;3.28;;;3.13;;
27802;SDS011;15182;48.174;11.562;2023-07-09T10:51:54;3.80;;;3.58;;
27802;SDS011;15182;48.174;11.562;2023-07-09T10:54:32;5.10;;;3.33;;
27802;SDS011;15182;48.174;11.562;2023-07-09T10:57:09;4.25;;;3.60;;
27802;SDS011;15182;48.174;11.562;2023-07-09T10:59:46;3.75;;;3.65;;
27802;SDS011;15182;48.174;11.562;2023-07-09T11:02:23;3.38;;;3.28;;
27802;SDS011;15182;48.174;11.562;2023-07-09T11:04:55;3.35;;;3.25;;
27802;SDS011;15182;48.174;11.562;2023-07-09T11:07:28;3.50;;;3.17;;
27802;SDS011;15182;48.174;11.562;2023-07-09T11:10:00;3.67;;;3.35;;
27802;SDS011;15182;48.174;11.562;2023-07-09T11:12:34;5.13;;;3.40;;
27802;SDS011;15182;48.174;11.562;2023-07-09T11:15:09;4.00;;;3.55;;
27802;SDS011;15182;48.174;11.562;2023-07-09T11:17:40;3.75;;;3.42;;
27802;SDS011;15182;48.174;11.562;2023-07-09T11:20:17;3.38;;;3.20;;
27802;SDS011;15182;48.174;11.562;2023-07-09T11:22:53;4.25;;;3.85;;
27802;SDS011;15182;48.174;11.562;2023-07-09T11:25:31;3.45;;;3.25;;
27802;SDS011;15182;48.174;11.562;2023-07-09T11:28:11;3.65;;;3.45;;
27802;SDS011;15182;48.174;11.562;2023-07-09T11:30:46;3.13;;;2.92;;
27802;SDS011;15182;48.174;11.562;2023-07-09T11:33:16;3.80;;;3.58;;
27802;SDS011;15182;48.174;11.562;2023-07-09T11:35:47;4.05;;;3.65;;
27802;SDS011;15182;48.174;11.562;2023-07-09T11:38:19;4.22;;;3.13;;
27802;SDS011;15182;48.174;11.562;2023-07-09T11:40:49;3.35;;;3.20;;
27802;SDS011;15182;48.174;11.562;2023-07-09T11:43:27;3.20;;;3.00;;
27802;SDS011;15182;48.174;11.562;2023-07-09T11:46:02;3.28;;;2.97;;
27802;SDS011;15182;48.174;11.562;2023-07-09T11:48:38;3.15;;;3.05;;
27802;SDS011;15182;48.174;11.562;2023-07-09T11:51:08;3.05;;;2.95;;
27802;SDS011;15182;48.174;11.562;2023-07-09T11:53:45;5.18;;;2.97;;
27802;SDS011;15182;48.174;11.562;2023-07-09T11:56:18;3.10;;;3.00;;
27802;SDS011;15182;48.174;11.562;2023-07-09T11:58:47;3.53;;;3.30;;
27802;SDS011;15182;48.174;11.562;2023-07-09T12:01:17;3.38;;;3.17;;
27802;SDS011;15182;48.174;11.562;2023-07-09T12:03:48;2.67;;;2.58;;
27802;SDS011;15182;48.174;11.562;2023-07-09T12:06:17;4.03;;;3.75;;
27802;SDS011;15182;48.174;11.562;2023-07-09T12:08:51;4.35;;;3.65;;
27802;SDS011;15182;48.174;11.562;2023-07-09T12:11:22;5.22;;;3.45;;
27802;SDS011;15182;48.174;11.562;2023-07-09T12:13:52;3.58;;;3.38;;
27802;SDS011;15182;48.174;11.562;2023-07-09T12:16:23;3.70;;;3.40;;
27802;SDS011;15182;48.174;11.562;2023-07-09T12:18:52;3.30;;;3.20;;
27802;SDS011;15182;48.174;11.562;2023-07-09T12:21:21;3.65;;;3.42;;
27802;SDS011;15182;48.174;11.562;2023-07-09T12:23:52;5.00;;;3.90;;
27802;SDS011;15182;48.174;11.562;2023-07-09T12:26:21;3.83;;;3.63;;
27802;SDS011;15182;48.174;11.562;2023-07-09T12:28:50;3.05;;;2.95;;
27802;SDS011;15182;48.174;11.562;2023-07-09T12:31:21;4.10;;;3.20;;
27802;SDS011;15182;48.174;11.562;2023-07-09T12:33:54;3.17;;;3.08;;
27802;SDS011;15182;48.174;11.562;2023-07-09T12:36:24;3.17;;;3.08;;
27802;SDS011;15182;48.174;11.562;2023-07-09T12:38:55;3.60;;;3.30;;
27802;SDS011;15182;48.174;11.562;2023-07-09T12:41:28;3.47;;;3.28;;
27802;SDS011;15182;48.174;11.562;2023-07-09T12:44:01;3.70;;;3.50;;
27802;SDS011;15182;48.174;11.562;2023-07-09T12:46:30;3.75;;;3.42;;
27802;SDS011;15182;48.174;11.562;2023-07-09T12:48:58;3.22;;;3.03;;
27802;SDS011;15182;48.174;11.562;2023-07-09T12:51:28;3.28;;;3.13;;
27802;SDS011;15182;48.174;11.562;2023-07-09T12:54:02;3.78;;;3.45;;
27802;SDS011;15182;48.174;11.562;2023-07-09T12:56:38;3.65;;;3.30;;
27802;SDS011;15182;48.174;11.562;2023-07-09T12:59:08;3.53;;;3.15;;
27802;SDS011;15182;48.174;11.562;2023-07-09T13:01:50;3.92;;;3.58;;
27802;SDS011;15182;48.174;11.562;2023-07-09T13:04:39;5.47;;;3.88;;
27802;SDS011;15182;48.174;11.562;2023-07-09T13:07:19;3.25;;;3.05;;
27802;SDS011;15182;48.174;11.562;2023-07-09T13:10:06;6.93;;;3.92;;
27802;SDS011;15182;48.174;11.562;2023-07-09T13:12:44;4.60;;;3.70;;
27802;SDS011;15182;48.174;11.562;2023-07-09T13:15:26;3.33;;;3.10;;
27802;SDS011;15182;48.174;11.562;2023-07-09T13:20:49;3.30;;;3.20;;
27802;SDS011;15182;48.174;11.562;2023-07-09T13:23:18;3.85;;;3.53;;
27802;SDS011;15182;48.174;11.562;2023-07-09T13:25:49;4.20;;;3.42;;
27802;SDS011;15182;48.174;11.562;2023-07-09T13:28:18;3.67;;;3.08;;
27802;SDS011;15182;48.174;11.562;2023-07-09T13:30:48;3.38;;;3.17;;
27802;SDS011;15182;48.174;11.562;2023-07-09T13:33:19;5.10;;;3.03;;
27802;SDS011;15182;48.174;11.562;2023-07-09T13:35:47;3.35;;;3.15;;
27802;SDS011;15182;48.174;11.562;2023-07-09T13:38:19;3.80;;;3.50;;
27802;SDS011;15182;48.174;11.562;2023-07-09T13:40:50;3.08;;;2.90;;
27802;SDS011;15182;48.174;11.562;2023-07-09T13:43:24;4.43;;;4.07;;
27802;SDS011;15182;48.174;11.562;2023-07-09T13:45:56;4.70;;;4.40;;
27802;SDS011;15182;48.174;11.562;2023-07-09T13:48:26;3.72;;;3.42;;
27802;SDS011;15182;48.174;11.562;2023-07-09T13:50:54;3.65;;;3.33;;
27802;SDS011;15182;48.174;11.562;2023-07-09T13:53:24;3.35;;;3.13;;
27802;SDS011;15182;48.174;11.562;2023-07-09T13:55:56;3.58;;;3.38;;
27802;SDS011;15182;48.174;11.562;2023-07-09T13:58:25;3.50;;;3.30;;
27802;SDS011;15182;48.174;11.562;2023-07-09T14:00:55;3.67;;;3.38;;
27802;SDS011;15182;48.174;11.562;2023-07-09T14:03:31;3.55;;;3.15;;
27802;SDS011;15182;48.174;11.562;2023-07-09T14:06:01;6.82;;;3.00;;
27802;SDS011;15182;48.174;11.562;2023-07-09T14:08:29;3.92;;;3.60;;
27802;SDS011;15182;48.174;11.562;2023-07-09T14:10:58;3.72;;;3.33;;
27802;SDS011;15182;48.174;11.562;2023-07-09T14:13:26;3.83;;;3.38;;
27802;SDS011;15182;48.174;11.562;2023-07-09T14:15:59;3.75;;;2.83;;
27802;SDS011;15182;48.174;11.562;2023-07-09T14:18:27;3.63;;;3.22;;
27802;SDS011;15182;48.174;11.562;2023-07-09T14:20:54;3.28;;;3.13;;
27802;SDS011;15182;48.174;11.562;2023-07-09T14:23:23;3.53;;;3.30;;
27802;SDS011;15182;48.174;11.562;2023-07-09T14:25:52;3.50;;;3.17;;
27802;SDS011;15182;48.174;11.562;2023-07-09T14:32:33;2.97;;;2.88;;
27802;SDS011;15182;48.174;11.562;2023-07-09T14:35:03;3.08;;;2.90;;
27802;SDS011;15182;48.174;11.562;2023-07-09T14:37:38;2.90;;;2.80;;
27802;SDS011;15182;48.174;11.562;2023-07-09T14:40:07;3.78;;;3.47;;
27802;SDS011;15182;48.174;11.562;2023-07-09T14:42:36;3.38;;;2.92;;
27802;SDS011;15182;48.174;11.562;2023-07-09T14:45:05;3.10;;;2.90;;
27802;SDS011;15182;48.174;11.562;2023-07-09T14:47:44;3.40;;;3.05;;
27802;SDS011;15182;48.174;11.562;2023-07-09T14:50:13;3.10;;;3.00;;
27802;SDS011;15182;48.174;11.562;2023-07-09T14:52:41;6.20;;;3.10;;
27802;SDS011;15182;48.174;11.562;2023-07-09T14:55:14;3.20;;;3.10;;
27802;SDS011;15182;48.174;11.562;2023-07-09T14:57:44;3.70;;;3.40;;
27802;SDS011;15182;48.174;11.562;2023-07-09T15:00:13;3.85;;;3.33;;
27802;SDS011;15182;48.174;11.562;2023-07-09T15:02:42;3.60;;;3.40;;